createdAt,value
2022-08-25T00:01:27.517Z,7.30
2022-08-25T00:03:57.524Z,10.93
2022-08-25T00:06:24.951Z,7.25
2022-08-25T00:08:51.816Z,6.55
2022-08-25T00:11:23.923Z,7.32
2022-08-25T00:13:54.240Z,7.07
2022-08-25T00:16:22.826Z,8.50
2022-08-25T00:18:54.307Z,10.82
2022-08-25T00:21:21.689Z,10.15
2022-08-25T00:23:48.394Z,7.07
2022-08-25T00:26:16.310Z,7.70
2022-08-25T00:28:43.789Z,7.07
2022-08-25T00:31:16.445Z,8.75
2022-08-25T00:33:44.893Z,6.95
2022-08-25T00:36:12.520Z,11.02
2022-08-25T00:38:44.716Z,8.55
2022-08-25T00:41:15.014Z,8.05
2022-08-25T00:43:41.557Z,7.25
2022-08-25T00:46:10.254Z,8.70
2022-08-25T00:48:39.120Z,15.95
2022-08-25T00:51:08.424Z,8.27
2022-08-25T00:53:35.256Z,7.00
2022-08-25T00:56:02.472Z,11.32
2022-08-25T00:58:31.080Z,8.35
2022-08-25T01:00:58.805Z,10.77
2022-08-25T01:03:33.051Z,12.32
2022-08-25T01:06:04.208Z,7.38
2022-08-25T01:08:32.544Z,6.82
2022-08-25T01:11:04.908Z,6.85
2022-08-25T01:13:37.381Z,6.40
2022-08-25T01:16:04.150Z,9.75
2022-08-25T01:18:53.002Z,7.13
2022-08-25T01:21:21.900Z,7.57
2022-08-25T01:23:50.539Z,6.63
2022-08-25T01:26:30.073Z,8.57
2022-08-25T01:29:18.034Z,6.47
2022-08-25T01:31:45.252Z,6.80
2022-08-25T01:34:12.636Z,9.05
2022-08-25T01:36:41.166Z,7.38
2022-08-25T01:39:07.902Z,7.63
2022-08-25T01:41:34.445Z,9.25
2022-08-25T01:44:02.793Z,9.32
2022-08-25T01:46:29.644Z,6.03
2022-08-25T01:48:56.311Z,6.57
2022-08-25T01:51:25.522Z,7.68
2022-08-25T01:53:52.137Z,7.60
2022-08-25T01:56:19.259Z,8.75
2022-08-25T01:58:49.060Z,6.75
2022-08-25T02:01:20.287Z,7.35
2022-08-25T02:03:49.687Z,9.90
2022-08-25T02:06:21.280Z,7.82
2022-08-25T02:09:00.711Z,9.18
2022-08-25T02:11:28.422Z,8.55
2022-08-25T02:13:55.028Z,8.25
2022-08-25T02:16:28.406Z,7.53
2022-08-25T02:18:56.139Z,11.20
2022-08-25T02:21:22.843Z,6.45
2022-08-25T02:23:49.586Z,9.55
2022-08-25T02:26:18.937Z,8.10
2022-08-25T02:28:50.584Z,7.60
2022-08-25T02:31:18.686Z,7.40
2022-08-25T02:33:45.575Z,7.65
2022-08-25T02:36:12.336Z,5.95
2022-08-25T02:38:39.755Z,7.30
2022-08-25T02:41:13.268Z,7.55
2022-08-25T02:43:42.131Z,7.30
2022-08-25T02:46:10.388Z,6.53
2022-08-25T02:48:37.741Z,11.13
2022-08-25T02:51:05.855Z,7.25
2022-08-25T02:53:33.523Z,8.68
2022-08-25T02:56:00.297Z,7.65
2022-08-25T02:58:26.935Z,8.93
2022-08-25T03:00:53.740Z,8.32
2022-08-25T03:03:20.727Z,8.15
2022-08-25T03:05:47.420Z,8.00
2022-08-25T03:08:14.461Z,7.60
2022-08-25T03:10:41.410Z,7.60
2022-08-25T03:13:08.297Z,6.28
2022-08-25T03:15:37.832Z,6.93
2022-08-25T03:18:06.127Z,9.10
2022-08-25T03:20:35.744Z,8.23
2022-08-25T03:23:03.071Z,7.10
2022-08-25T03:28:38.931Z,10.85
2022-08-25T03:31:05.837Z,7.57
2022-08-25T03:33:32.467Z,8.05
2022-08-25T03:35:59.356Z,7.78
2022-08-25T03:38:26.989Z,8.65
2022-08-25T03:40:53.665Z,9.90
2022-08-25T03:43:20.385Z,7.70
2022-08-25T03:45:47.982Z,6.60
2022-08-25T03:48:16.136Z,8.55
2022-08-25T03:50:51.490Z,9.52
2022-08-25T03:53:19.965Z,10.75
2022-08-25T03:55:47.307Z,13.10
2022-08-25T03:58:14.374Z,10.30
2022-08-25T04:00:42.124Z,12.48
2022-08-25T04:03:08.998Z,11.88
2022-08-25T04:05:35.635Z,12.27
2022-08-25T04:08:02.714Z,10.43
2022-08-25T04:10:29.766Z,10.88
2022-08-25T04:12:57.531Z,9.48
2022-08-25T04:15:28.923Z,7.60
2022-08-25T04:17:59.016Z,9.23
2022-08-25T04:20:26.310Z,10.63
2022-08-25T04:22:53.269Z,14.20
2022-08-25T04:25:20.033Z,13.68
2022-08-25T04:27:46.720Z,13.70
2022-08-25T04:30:13.832Z,18.05
2022-08-25T04:32:40.600Z,11.93
2022-08-25T04:35:07.728Z,13.50
2022-08-25T04:37:34.767Z,10.88
2022-08-25T04:40:01.925Z,16.25
2022-08-25T04:42:28.653Z,11.20
2022-08-25T04:44:55.794Z,12.70
2022-08-25T04:47:22.452Z,13.70
2022-08-25T04:49:49.278Z,21.02
2022-08-25T04:52:15.947Z,14.60
2022-08-25T04:54:43.114Z,19.10
2022-08-25T04:57:09.962Z,12.88
2022-08-25T04:59:36.813Z,15.43
2022-08-25T05:02:05.248Z,13.38
2022-08-25T05:04:35.249Z,12.40
2022-08-25T05:07:03.411Z,16.10
2022-08-25T05:09:32.072Z,14.65
2022-08-25T05:11:59.995Z,17.70
2022-08-25T05:14:26.885Z,20.15
2022-08-25T05:16:54.853Z,16.63
2022-08-25T05:19:21.691Z,14.05
2022-08-25T05:21:48.400Z,22.45
2022-08-25T05:24:15.412Z,27.02
2022-08-25T05:26:44.052Z,24.77
2022-08-25T05:29:11.773Z,16.38
2022-08-25T05:31:42.427Z,23.23
2022-08-25T05:34:12.139Z,19.48
2022-08-25T05:36:43.368Z,23.02
2022-08-25T05:39:10.989Z,18.17
2022-08-25T05:41:37.942Z,13.48
2022-08-25T05:44:04.873Z,17.45
2022-08-25T05:46:31.897Z,16.50
2022-08-25T05:48:59.111Z,19.02
2022-08-25T05:51:26.786Z,13.50
2022-08-25T05:53:53.956Z,14.77
2022-08-25T05:56:21.164Z,16.52
2022-08-25T05:58:48.108Z,14.75
2022-08-25T06:01:48.276Z,11.02
2022-08-25T06:04:22.542Z,17.02
2022-08-25T06:06:49.924Z,15.45
2022-08-25T06:09:16.539Z,25.20
2022-08-25T06:11:43.256Z,12.60
2022-08-25T06:14:10.730Z,24.42
2022-08-25T06:16:39.127Z,22.15
2022-08-25T06:19:08.119Z,14.32
2022-08-25T06:21:34.748Z,14.60
2022-08-25T06:24:02.155Z,12.25
2022-08-25T06:26:28.812Z,12.52
2022-08-25T06:28:55.453Z,14.43
2022-08-25T06:31:22.684Z,14.60
2022-08-25T06:33:50.260Z,18.90
2022-08-25T06:36:16.935Z,16.30
2022-08-25T06:38:43.703Z,10.55
2022-08-25T06:41:14.017Z,15.77
2022-08-25T06:43:48.108Z,15.52
2022-08-25T06:46:26.357Z,17.08
2022-08-25T06:49:03.030Z,12.10
2022-08-25T06:51:30.031Z,15.57
2022-08-25T06:53:56.680Z,17.15
2022-08-25T06:56:24.049Z,13.65
2022-08-25T06:58:50.792Z,22.77
2022-08-25T07:01:26.215Z,9.85
2022-08-25T07:03:59.683Z,12.68
2022-08-25T07:06:27.897Z,11.25
2022-08-25T07:08:54.608Z,12.82
2022-08-25T07:11:21.547Z,8.02
2022-08-25T07:13:52.595Z,10.35
2022-08-25T07:16:20.806Z,6.85
2022-08-25T07:18:48.394Z,7.38
2022-08-25T07:21:15.303Z,11.32
2022-08-25T07:23:42.473Z,9.73
2022-08-25T07:26:39.346Z,10.98
2022-08-25T07:29:32.754Z,9.45
2022-08-25T07:32:05.244Z,11.23
2022-08-25T07:37:49.643Z,8.45
2022-08-25T07:40:23.204Z,20.67
2022-08-25T07:42:52.426Z,6.93
2022-08-25T07:45:21.478Z,9.98
2022-08-25T07:47:48.580Z,8.25
2022-08-25T07:50:18.550Z,16.63
2022-08-25T07:52:52.099Z,8.18
2022-08-25T07:55:22.808Z,8.30
2022-08-25T07:57:52.788Z,7.20
2022-08-25T08:00:22.586Z,8.00
2022-08-25T08:02:51.416Z,9.40
2022-08-25T08:05:18.101Z,7.68
2022-08-25T08:07:44.739Z,14.07
2022-08-25T08:10:48.003Z,7.90
2022-08-25T08:13:01.767Z,7.80
2022-08-25T08:15:29.957Z,7.65
2022-08-25T08:17:58.458Z,10.05
2022-08-25T08:20:27.077Z,9.88
2022-08-25T08:22:53.900Z,10.48
2022-08-25T08:25:21.521Z,11.15
2022-08-25T08:27:54.946Z,7.63
2022-08-25T08:30:22.286Z,6.93
2022-08-25T08:33:09.124Z,8.40
2022-08-25T08:35:37.157Z,7.60
2022-08-25T08:38:06.938Z,20.42
2022-08-25T08:41:14.569Z,9.02
2022-08-25T08:43:43.658Z,9.27
2022-08-25T08:46:11.246Z,8.10
2022-08-25T08:48:40.848Z,8.57
2022-08-25T08:51:09.840Z,8.35
2022-08-25T08:53:57.220Z,9.90
2022-08-25T08:56:30.947Z,9.13
2022-08-25T08:59:14.333Z,10.80
2022-08-25T09:01:59.153Z,7.10
2022-08-25T09:04:36.089Z,6.80
2022-08-25T09:07:09.189Z,8.35
2022-08-25T09:09:40.126Z,11.40
2022-08-25T09:12:31.478Z,10.57
2022-08-25T09:15:18.363Z,8.02
2022-08-25T09:18:29.791Z,7.20
2022-08-25T09:21:15.941Z,7.30
2022-08-25T09:24:05.672Z,8.98
2022-08-25T09:26:50.983Z,8.07
2022-08-25T09:29:25.385Z,9.02
2022-08-25T09:31:57.942Z,7.43
2022-08-25T09:34:31.893Z,6.20
2022-08-25T09:36:59.334Z,7.88
2022-08-25T09:39:27.906Z,8.65
2022-08-25T09:41:59.287Z,5.35
2022-08-25T09:44:50.045Z,12.88
2022-08-25T09:47:28.005Z,7.35
2022-08-25T09:50:00.716Z,6.35
2022-08-25T09:52:41.106Z,5.43
2022-08-25T09:55:08.112Z,6.03
2022-08-25T09:57:45.217Z,6.78
2022-08-25T10:00:13.612Z,8.40
2022-08-25T10:02:42.719Z,5.97
2022-08-25T10:05:26.135Z,9.88
2022-08-25T10:07:57.188Z,6.00
2022-08-25T10:10:35.604Z,10.15
2022-08-25T10:13:12.176Z,9.05
2022-08-25T10:15:39.726Z,10.55
2022-08-25T10:18:15.753Z,6.32
2022-08-25T10:20:44.848Z,7.18
2022-08-25T10:23:15.025Z,12.38
2022-08-25T10:25:59.222Z,6.10
2022-08-25T10:29:11.910Z,7.35
2022-08-25T10:32:28.031Z,8.77
2022-08-25T10:34:58.471Z,5.30
2022-08-25T10:37:34.737Z,4.55
2022-08-25T10:40:04.816Z,8.18
2022-08-25T10:45:45.764Z,5.28
2022-08-25T10:48:27.791Z,8.25
2022-08-25T10:51:37.712Z,4.60
2022-08-25T10:54:24.591Z,5.95
2022-08-25T10:56:56.539Z,12.70
2022-08-25T10:59:59.764Z,5.38
2022-08-25T11:03:03.973Z,7.20
2022-08-25T11:05:54.710Z,6.80
2022-08-25T11:08:40.098Z,6.18
2022-08-25T11:11:24.304Z,6.07
2022-08-25T11:13:53.172Z,7.10
2022-08-25T11:16:53.682Z,6.38
2022-08-25T11:19:35.001Z,8.00
2022-08-25T11:22:15.362Z,10.20
2022-08-25T11:25:00.997Z,6.25
2022-08-25T11:28:12.183Z,6.68
2022-08-25T11:30:40.242Z,5.88
2022-08-25T11:33:11.783Z,8.18
2022-08-25T11:35:43.255Z,7.80
2022-08-25T11:38:37.853Z,7.97
2022-08-25T11:41:27.192Z,8.43
2022-08-25T11:44:20.104Z,12.77
2022-08-25T11:47:21.490Z,5.60
2022-08-25T11:50:23.671Z,8.05
2022-08-25T11:52:59.818Z,6.32
2022-08-25T11:55:52.253Z,8.40
2022-08-25T11:58:49.951Z,7.72
2022-08-25T12:01:32.585Z,9.90
2022-08-25T12:04:28.638Z,6.40
2022-08-25T12:07:06.825Z,8.45
2022-08-25T12:09:54.629Z,10.23
2022-08-25T12:12:43.964Z,9.82
2022-08-25T12:15:33.166Z,7.13
2022-08-25T12:18:23.196Z,7.53
2022-08-25T12:20:53.997Z,11.65
2022-08-25T12:24:10.077Z,6.85
2022-08-25T12:26:51.965Z,7.47
2022-08-25T12:29:39.511Z,9.18
2022-08-25T12:32:43.711Z,5.63
2022-08-25T12:35:30.588Z,6.43
2022-08-25T12:38:02.510Z,6.97
2022-08-25T12:40:58.530Z,9.82
2022-08-25T12:43:38.085Z,6.50
2022-08-25T12:46:20.130Z,7.47
2022-08-25T12:49:01.043Z,10.23
2022-08-25T12:51:48.575Z,7.85
2022-08-25T12:54:33.951Z,9.52
2022-08-25T12:57:05.167Z,6.32
2022-08-25T12:59:37.760Z,9.57
2022-08-25T13:02:36.626Z,7.15
2022-08-25T13:05:12.284Z,7.85
2022-08-25T13:08:06.945Z,7.03
2022-08-25T13:11:05.003Z,5.72
2022-08-25T13:14:04.401Z,7.28
2022-08-25T13:16:33.512Z,5.72
2022-08-25T13:19:06.832Z,5.23
2022-08-25T13:21:37.841Z,8.57
2022-08-25T13:24:17.152Z,9.93
2022-08-25T13:26:47.133Z,9.23
2022-08-25T13:29:22.325Z,7.47
2022-08-25T13:32:01.449Z,6.50
2022-08-25T13:34:36.870Z,12.53
2022-08-25T13:37:26.300Z,7.40
2022-08-25T13:40:10.952Z,6.35
2022-08-25T13:42:42.524Z,7.18
2022-08-25T13:45:15.204Z,7.95
2022-08-25T13:47:45.739Z,7.43
2022-08-25T13:50:18.415Z,7.88
2022-08-25T13:53:23.929Z,6.15
2022-08-25T13:55:57.122Z,13.27
2022-08-25T13:58:38.594Z,5.47
2022-08-25T14:01:45.057Z,7.90
2022-08-25T14:04:24.737Z,6.70
2022-08-25T14:07:13.205Z,8.55
2022-08-25T14:09:55.806Z,5.78
2022-08-25T14:12:44.843Z,9.73
2022-08-25T14:15:17.719Z,5.83
2022-08-25T14:17:48.644Z,8.68
2022-08-25T14:20:25.662Z,6.25
2022-08-25T14:22:58.012Z,6.03
2022-08-25T14:25:26.863Z,6.20
2022-08-25T14:28:16.479Z,9.68
2022-08-25T14:30:59.750Z,9.10
2022-08-25T14:33:34.325Z,6.63
2022-08-25T14:36:05.415Z,7.55
2022-08-25T14:38:33.521Z,5.40
2022-08-25T14:41:00.642Z,5.57
2022-08-25T14:43:31.541Z,6.38
2022-08-25T14:46:00.506Z,6.55
2022-08-25T14:48:35.504Z,8.82
2022-08-25T14:51:04.273Z,9.13
2022-08-25T14:53:30.928Z,6.30
2022-08-25T14:55:58.979Z,6.15
2022-08-25T14:58:26.755Z,5.32
2022-08-25T15:00:54.579Z,5.22
2022-08-25T15:03:31.751Z,6.82
2022-08-25T15:06:00.602Z,5.80
2022-08-25T15:08:47.237Z,6.57
2022-08-25T15:11:14.932Z,6.95
2022-08-25T15:13:44.669Z,5.97
2022-08-25T15:16:35.380Z,7.13
2022-08-25T15:19:06.767Z,9.05
2022-08-25T15:21:34.142Z,9.57
2022-08-25T15:24:02.686Z,6.80
2022-08-25T15:26:29.247Z,7.18
2022-08-25T15:28:58.161Z,6.47
2022-08-25T15:31:24.857Z,4.95
2022-08-25T15:33:53.571Z,7.28
2022-08-25T15:36:25.565Z,5.60
2022-08-25T15:38:53.236Z,8.75
2022-08-25T15:41:21.745Z,7.78
2022-08-25T15:43:53.913Z,8.10
2022-08-25T15:46:21.884Z,9.68
2022-08-25T15:48:48.589Z,6.75
2022-08-25T15:51:17.699Z,5.25
2022-08-25T15:53:45.024Z,6.43
2022-08-25T15:56:26.516Z,7.40
2022-08-25T15:58:54.349Z,7.30
2022-08-25T16:01:24.944Z,8.18
2022-08-25T16:03:51.868Z,7.45
2022-08-25T16:06:18.586Z,9.50
2022-08-25T16:08:45.256Z,5.53
2022-08-25T16:11:20.999Z,5.18
2022-08-25T16:13:49.337Z,7.25
2022-08-25T16:16:17.927Z,6.15
2022-08-25T16:18:45.569Z,6.57
2022-08-25T16:21:16.636Z,5.15
2022-08-25T16:23:44.076Z,7.05
2022-08-25T16:26:13.023Z,6.90
2022-08-25T16:28:43.655Z,6.82
2022-08-25T16:31:12.344Z,8.73
2022-08-25T16:36:15.592Z,6.22
2022-08-25T16:38:43.363Z,6.53
2022-08-25T16:41:22.985Z,7.22
2022-08-25T16:43:50.409Z,11.45
2022-08-25T16:46:19.132Z,9.23
2022-08-25T16:48:46.522Z,9.43
2022-08-25T16:51:22.786Z,7.72
2022-08-25T16:54:15.866Z,5.47
2022-08-25T16:56:49.240Z,5.22
2022-08-25T16:59:22.151Z,9.73
2022-08-25T17:01:51.145Z,8.07
2022-08-25T17:04:17.813Z,15.02
2022-08-25T17:06:51.784Z,11.52
2022-08-25T17:09:23.046Z,5.50
2022-08-25T17:11:52.702Z,9.40
2022-08-25T17:14:21.388Z,7.13
2022-08-25T17:16:48.609Z,7.80
2022-08-25T17:19:17.699Z,9.65
2022-08-25T17:21:46.411Z,5.40
2022-08-25T17:24:14.068Z,7.30
2022-08-25T17:26:46.232Z,6.40
2022-08-25T17:29:13.068Z,10.35
2022-08-25T17:31:40.155Z,5.93
2022-08-25T17:34:12.892Z,9.45
2022-08-25T17:36:43.988Z,7.50
2022-08-25T17:39:12.333Z,6.97
2022-08-25T17:41:39.716Z,10.75
2022-08-25T17:44:07.610Z,6.28
2022-08-25T17:46:35.009Z,10.68
2022-08-25T17:49:01.710Z,7.47
2022-08-25T17:51:29.725Z,5.22
2022-08-25T17:53:58.605Z,7.18
2022-08-25T17:56:27.234Z,6.60
2022-08-25T17:58:55.910Z,5.40
2022-08-25T18:01:24.687Z,5.68
2022-08-25T18:03:52.540Z,8.95
2022-08-25T18:06:22.553Z,4.90
2022-08-25T18:08:52.258Z,6.30
2022-08-25T18:11:24.513Z,6.07
2022-08-25T18:13:53.716Z,5.47
2022-08-25T18:16:21.287Z,5.45
2022-08-25T18:18:48.599Z,5.60
2022-08-25T18:21:17.261Z,10.63
2022-08-25T18:23:45.196Z,7.32
2022-08-25T18:26:14.499Z,6.70
2022-08-25T18:28:43.902Z,4.88
2022-08-25T18:31:13.252Z,9.23
2022-08-25T18:33:45.033Z,6.55
2022-08-25T18:36:12.448Z,8.82
2022-08-25T18:38:59.361Z,10.50
2022-08-25T18:41:27.796Z,8.90
2022-08-25T18:43:54.506Z,6.78
2022-08-25T18:46:22.765Z,6.95
2022-08-25T18:48:52.958Z,7.50
2022-08-25T18:51:23.143Z,5.22
2022-08-25T18:53:51.191Z,6.05
2022-08-25T18:56:19.203Z,8.57
2022-08-25T18:58:46.980Z,13.85
2022-08-25T19:01:18.552Z,11.82
2022-08-25T19:03:45.708Z,6.40
2022-08-25T19:06:12.574Z,13.88
2022-08-25T19:08:42.089Z,6.80
2022-08-25T19:11:10.002Z,6.68
2022-08-25T19:13:37.861Z,8.07
2022-08-25T19:16:41.029Z,9.05
2022-08-25T19:19:11.553Z,11.23
2022-08-25T19:21:38.796Z,7.70
2022-08-25T19:24:07.956Z,11.18
2022-08-25T19:26:36.545Z,5.53
2022-08-25T19:29:08.949Z,7.85
2022-08-25T19:31:39.203Z,10.35
2022-08-25T19:34:08.734Z,7.50
2022-08-25T19:36:35.566Z,5.43
2022-08-25T19:39:04.980Z,7.57
2022-08-25T19:41:32.097Z,6.63
2022-08-25T19:44:01.619Z,7.68
2022-08-25T19:46:35.679Z,7.40
2022-08-25T19:49:26.358Z,9.50
2022-08-25T19:51:55.385Z,6.00
2022-08-25T19:54:32.370Z,5.80
2022-08-25T19:56:59.723Z,14.13
2022-08-25T19:59:34.301Z,9.40
2022-08-25T20:02:15.535Z,6.15
2022-08-25T20:04:49.769Z,8.13
2022-08-25T20:07:18.945Z,6.00
2022-08-25T20:09:45.578Z,7.45
2022-08-25T20:14:46.766Z,9.55
2022-08-25T20:17:23.140Z,6.60
2022-08-25T20:19:53.028Z,8.27
2022-08-25T20:22:23.627Z,9.07
2022-08-25T20:24:56.252Z,10.27
2022-08-25T20:27:28.308Z,8.80
2022-08-25T20:29:55.858Z,10.75
2022-08-25T20:32:23.416Z,12.57
2022-08-25T20:34:50.435Z,16.40
2022-08-25T20:37:18.596Z,14.82
2022-08-25T20:39:46.219Z,14.65
2022-08-25T20:42:13.685Z,11.68
2022-08-25T20:44:42.194Z,10.82
2022-08-25T20:47:10.527Z,13.02
2022-08-25T20:49:40.029Z,12.93
2022-08-25T20:52:07.594Z,12.75
2022-08-25T20:54:34.663Z,10.32
2022-08-25T20:57:02.642Z,8.82
2022-08-25T20:59:29.699Z,9.70
2022-08-25T21:01:56.617Z,8.80
2022-08-25T21:04:25.921Z,9.52
2022-08-25T21:06:52.954Z,9.68
2022-08-25T21:09:23.729Z,9.65
2022-08-25T21:14:19.482Z,9.43
2022-08-25T21:16:46.591Z,8.23
2022-08-25T21:19:16.074Z,12.00
2022-08-25T21:21:43.834Z,9.52
2022-08-25T21:24:11.700Z,12.80
2022-08-25T21:26:48.562Z,11.45
2022-08-25T21:29:17.384Z,8.95
2022-08-25T21:31:44.312Z,12.40
2022-08-25T21:34:12.679Z,11.00
2022-08-25T21:36:40.547Z,11.25
2022-08-25T21:39:07.943Z,9.52
2022-08-25T21:41:37.677Z,9.55
2022-08-25T21:44:04.583Z,9.82
2022-08-25T21:46:33.531Z,11.65
2022-08-25T21:49:01.581Z,12.30
2022-08-25T21:51:43.664Z,9.30
2022-08-25T21:54:14.214Z,11.30
2022-08-25T21:56:43.692Z,12.85
2022-08-25T21:59:14.061Z,10.80
2022-08-25T22:01:41.475Z,10.77
2022-08-25T22:04:10.096Z,14.05
2022-08-25T22:06:36.878Z,14.23
2022-08-25T22:09:07.395Z,9.65
2022-08-25T22:11:35.960Z,8.82
2022-08-25T22:14:03.600Z,11.27
2022-08-25T22:16:33.044Z,13.23
2022-08-25T22:19:00.708Z,12.48
2022-08-25T22:21:28.001Z,15.90
2022-08-25T22:23:56.079Z,9.90
2022-08-25T22:26:23.881Z,12.32
2022-08-25T22:28:54.124Z,9.85
2022-08-25T22:31:21.198Z,9.05
2022-08-25T22:33:48.910Z,11.02
2022-08-25T22:36:24.807Z,14.95
2022-08-25T22:38:54.815Z,12.93
2022-08-25T22:41:22.924Z,15.20
2022-08-25T22:43:52.900Z,12.57
2022-08-25T22:46:21.584Z,11.40
2022-08-25T22:48:50.301Z,11.32
2022-08-25T22:51:24.357Z,11.75
2022-08-25T22:53:51.655Z,8.93
2022-08-25T22:56:29.708Z,10.55
2022-08-25T22:59:05.567Z,10.25
2022-08-25T23:01:33.038Z,13.27
2022-08-25T23:04:01.212Z,10.98
2022-08-25T23:06:29.405Z,9.13
2022-08-25T23:08:57.092Z,9.68
2022-08-25T23:11:28.917Z,10.10
2022-08-25T23:13:57.651Z,10.60
2022-08-25T23:16:25.154Z,14.13
2022-08-25T23:18:52.840Z,8.13
2022-08-25T23:21:40.975Z,11.00
2022-08-25T23:24:11.838Z,11.20
2022-08-25T23:26:42.646Z,11.30
2022-08-25T23:29:18.742Z,10.90
2022-08-25T23:31:47.826Z,10.25
2022-08-25T23:34:16.003Z,10.55
2022-08-25T23:36:43.448Z,10.55
2022-08-25T23:39:11.465Z,10.50
2022-08-25T23:41:38.719Z,9.65
2022-08-25T23:44:06.702Z,12.13
2022-08-25T23:46:36.177Z,9.07
2022-08-25T23:49:05.599Z,10.57
2022-08-25T23:51:38.125Z,8.65
2022-08-25T23:54:09.213Z,15.43
2022-08-25T23:56:42.479Z,11.75
2022-08-25T23:59:13.007Z,9.98
